createdAt,value
2022-11-05T00:00:05.851Z,82.98
2022-11-05T00:02:52.703Z,83.27
2022-11-05T00:05:38.695Z,82.50
2022-11-05T00:08:24.981Z,82.79
2022-11-05T00:10:53.054Z,83.22
2022-11-05T00:13:39.630Z,82.43
2022-11-05T00:16:36.560Z,82.51
2022-11-05T00:19:09.206Z,82.54
2022-11-05T00:21:55.842Z,82.46
2022-11-05T00:24:42.125Z,83.05
2022-11-05T00:27:10.487Z,82.61
2022-11-05T00:29:38.687Z,83.03
2022-11-05T00:32:06.636Z,82.13
2022-11-05T00:34:36.015Z,82.94
2022-11-05T00:37:03.874Z,82.89
2022-11-05T00:39:33.348Z,82.43
2022-11-05T00:42:18.586Z,82.34
2022-11-05T00:45:05.028Z,81.94
2022-11-05T00:47:52.043Z,82.43
2022-11-05T00:50:22.929Z,82.09
2022-11-05T00:52:58.266Z,82.46
2022-11-05T00:55:33.326Z,82.63
2022-11-05T00:58:02.075Z,82.38
2022-11-05T01:00:31.836Z,82.77
2022-11-05T01:03:01.410Z,82.09
2022-11-05T01:05:31.706Z,82.33
2022-11-05T01:07:59.544Z,82.82
2022-11-05T01:10:28.442Z,82.68
2022-11-05T01:12:56.617Z,82.22
2022-11-05T01:15:24.801Z,82.03
2022-11-05T01:17:53.409Z,82.71
2022-11-05T01:20:21.519Z,81.76
2022-11-05T01:22:50.785Z,82.52
2022-11-05T01:25:18.737Z,82.11
2022-11-05T01:27:46.914Z,82.60
2022-11-05T01:30:15.510Z,82.10
2022-11-05T01:32:43.590Z,82.25
2022-11-05T01:35:18.432Z,82.09
2022-11-05T01:37:46.775Z,81.81
2022-11-05T01:40:18.428Z,81.94
2022-11-05T01:42:46.396Z,82.12
2022-11-05T01:45:18.805Z,82.07
2022-11-05T01:48:07.655Z,82.50
2022-11-05T01:50:50.691Z,82.42
2022-11-05T01:53:25.679Z,81.92
2022-11-05T01:56:00.326Z,81.91
2022-11-05T01:58:33.132Z,81.73
2022-11-05T02:01:01.325Z,82.04
2022-11-05T02:03:30.294Z,81.56
2022-11-05T02:06:01.470Z,81.69
2022-11-05T02:08:47.551Z,82.20
2022-11-05T02:11:19.472Z,82.03
2022-11-05T02:13:48.354Z,81.82
2022-11-05T02:16:29.966Z,82.22
2022-11-05T02:19:05.958Z,81.98
2022-11-05T02:22:00.942Z,82.04
2022-11-05T02:25:00.711Z,81.85
2022-11-05T02:27:57.742Z,81.57
2022-11-05T02:30:33.460Z,81.58
2022-11-05T02:33:32.138Z,82.03
2022-11-05T02:36:19.238Z,81.77
2022-11-05T02:38:56.267Z,81.90
2022-11-05T02:41:31.393Z,81.81
2022-11-05T02:44:11.096Z,81.74
2022-11-05T02:46:47.600Z,81.69
2022-11-05T02:49:28.077Z,82.17
2022-11-05T02:51:58.472Z,81.69
2022-11-05T02:54:30.478Z,82.12
2022-11-05T02:57:00.678Z,81.71
2022-11-05T02:59:28.432Z,82.24
2022-11-05T03:01:59.927Z,81.69
2022-11-05T03:04:28.546Z,81.30
2022-11-05T03:07:13.228Z,81.95
2022-11-05T03:10:04.670Z,81.36
2022-11-05T03:12:38.055Z,81.28
2022-11-05T03:15:17.653Z,81.13
2022-11-05T03:17:59.090Z,81.92
2022-11-05T03:20:35.351Z,81.35
2022-11-05T03:23:24.745Z,81.21
2022-11-05T03:25:57.424Z,81.70
2022-11-05T03:28:29.073Z,81.98
2022-11-05T03:30:59.174Z,82.10
2022-11-05T03:33:32.189Z,81.62
2022-11-05T03:36:06.274Z,81.43
2022-11-05T03:38:37.688Z,82.13
2022-11-05T03:41:09.257Z,81.61
2022-11-05T03:43:42.444Z,81.61
2022-11-05T03:46:13.362Z,81.44
2022-11-05T03:48:48.489Z,82.06
2022-11-05T03:51:26.014Z,81.16
2022-11-05T03:53:58.915Z,81.33
2022-11-05T03:56:31.946Z,81.26
2022-11-05T03:59:03.336Z,81.51
2022-11-05T04:01:32.490Z,81.43
2022-11-05T04:04:01.818Z,82.02
2022-11-05T04:06:47.111Z,81.54
2022-11-05T04:09:32.479Z,81.61
2022-11-05T04:12:17.890Z,81.40
2022-11-05T04:14:46.110Z,81.01
2022-11-05T04:17:12.992Z,81.24
2022-11-05T04:20:01.860Z,81.54
2022-11-05T04:22:49.711Z,81.17
2022-11-05T04:25:19.099Z,81.72
2022-11-05T04:27:48.389Z,80.91
2022-11-05T04:30:20.019Z,81.79
2022-11-05T04:32:58.751Z,81.00
2022-11-05T04:35:28.933Z,81.17
2022-11-05T04:37:57.112Z,81.19
2022-11-05T04:40:25.053Z,81.33
2022-11-05T04:42:55.283Z,81.30
2022-11-05T04:45:23.857Z,81.19
2022-11-05T04:47:51.725Z,81.30
2022-11-05T04:50:19.708Z,81.74
2022-11-05T04:52:48.884Z,81.50
2022-11-05T04:55:16.946Z,80.98
2022-11-05T04:57:45.437Z,81.51
2022-11-05T05:00:13.912Z,81.27
2022-11-05T05:02:41.828Z,81.67
2022-11-05T05:05:09.775Z,81.29
2022-11-05T05:07:37.678Z,81.39
2022-11-05T05:10:09.112Z,80.90
2022-11-05T05:12:37.067Z,81.53
2022-11-05T05:15:05.739Z,81.13
2022-11-05T05:17:34.183Z,81.36
2022-11-05T05:20:19.735Z,81.13
2022-11-05T05:22:53.139Z,81.12
2022-11-05T05:25:23.149Z,80.96
2022-11-05T05:27:51.185Z,80.75
2022-11-05T05:30:19.211Z,81.29
2022-11-05T05:32:47.309Z,80.91
2022-11-05T05:35:15.381Z,81.67
2022-11-05T05:37:44.301Z,81.07
2022-11-05T05:40:12.680Z,81.27
2022-11-05T05:42:43.541Z,81.17
2022-11-05T05:45:12.610Z,81.19
2022-11-05T05:47:40.458Z,81.05
2022-11-05T05:50:08.908Z,81.43
2022-11-05T05:52:36.862Z,80.99
2022-11-05T05:55:05.029Z,80.43
2022-11-05T05:57:32.962Z,81.34
2022-11-05T06:00:02.309Z,80.69
2022-11-05T06:02:31.535Z,81.20
2022-11-05T06:05:01.029Z,80.49
2022-11-05T06:07:31.862Z,80.66
2022-11-05T06:10:04.191Z,81.00
2022-11-05T06:12:32.244Z,80.56
2022-11-05T06:15:00.873Z,80.57
2022-11-05T06:17:30.187Z,80.80
2022-11-05T06:19:57.990Z,80.44
2022-11-05T06:22:25.880Z,80.68
2022-11-05T06:24:53.771Z,80.95
2022-11-05T06:27:21.664Z,80.94
2022-11-05T06:29:49.400Z,81.09
2022-11-05T06:32:17.235Z,80.78
2022-11-05T06:34:46.623Z,80.48
2022-11-05T06:37:14.494Z,80.47
2022-11-05T06:39:42.429Z,80.62
2022-11-05T06:42:19.105Z,80.54
2022-11-05T06:44:48.194Z,80.70
2022-11-05T06:47:16.080Z,80.71
2022-11-05T06:49:43.982Z,80.61
2022-11-05T06:52:14.218Z,80.77
2022-11-05T06:54:42.825Z,80.80
2022-11-05T06:57:12.365Z,80.42
2022-11-05T06:59:40.850Z,80.43
2022-11-05T07:02:12.675Z,80.65
2022-11-05T07:04:40.562Z,80.93
2022-11-05T07:07:08.330Z,80.53
2022-11-05T07:09:40.634Z,80.47
2022-11-05T07:12:08.849Z,80.81
2022-11-05T07:14:36.780Z,81.05
2022-11-05T07:17:04.682Z,80.12
2022-11-05T07:19:32.553Z,80.36
2022-11-05T07:22:00.535Z,80.24
2022-11-05T07:24:28.352Z,80.88
2022-11-05T07:26:57.750Z,80.77
2022-11-05T07:29:25.583Z,80.45
2022-11-05T07:31:53.354Z,80.12
2022-11-05T07:34:21.560Z,80.39
2022-11-05T07:36:49.754Z,80.52
2022-11-05T07:39:17.654Z,80.44
2022-11-05T07:41:45.528Z,80.11
2022-11-05T07:44:17.547Z,80.02
2022-11-05T07:46:45.583Z,80.20
2022-11-05T07:49:13.433Z,80.66
2022-11-05T07:51:41.418Z,80.15
2022-11-05T07:54:09.595Z,80.59
2022-11-05T07:56:37.767Z,80.09
2022-11-05T07:59:06.231Z,80.16
2022-11-05T08:01:35.806Z,80.23
2022-11-05T08:04:04.335Z,80.28
2022-11-05T08:06:32.809Z,80.83
2022-11-05T08:09:00.939Z,80.33
2022-11-05T08:11:29.016Z,80.03
2022-11-05T08:13:57.026Z,80.09
2022-11-05T08:16:24.945Z,80.20
2022-11-05T08:18:54.316Z,80.50
2022-11-05T08:21:22.128Z,80.59
2022-11-05T08:23:49.936Z,80.02
2022-11-05T08:26:17.933Z,80.23
2022-11-05T08:28:45.765Z,80.38
2022-11-05T08:31:15.442Z,79.89
2022-11-05T08:33:43.458Z,79.48
2022-11-05T08:36:12.775Z,79.95
2022-11-05T08:38:41.013Z,80.36
2022-11-05T08:41:08.859Z,80.14
2022-11-05T08:43:36.921Z,79.62
2022-11-05T08:46:04.931Z,79.54
2022-11-05T08:48:33.047Z,79.61
2022-11-05T08:51:01.763Z,79.74
2022-11-05T08:53:31.243Z,79.90
2022-11-05T08:56:00.764Z,79.47
2022-11-05T08:58:29.165Z,80.20
2022-11-05T09:01:03.464Z,80.05
2022-11-05T09:03:32.810Z,80.09
2022-11-05T09:06:00.761Z,79.62
2022-11-05T09:08:29.967Z,80.27
2022-11-05T09:10:57.898Z,79.25
2022-11-05T09:13:26.444Z,79.57
2022-11-05T09:15:54.920Z,79.85
2022-11-05T09:18:22.880Z,79.77
2022-11-05T09:20:50.765Z,79.16
2022-11-05T09:23:18.850Z,79.13
2022-11-05T09:25:48.295Z,79.50
2022-11-05T09:28:18.273Z,79.78
2022-11-05T09:30:48.682Z,79.53
2022-11-05T09:33:18.349Z,79.42
2022-11-05T09:35:46.786Z,80.01
2022-11-05T09:38:15.192Z,79.69
2022-11-05T09:40:48.125Z,78.99
2022-11-05T09:43:24.081Z,79.43
2022-11-05T09:45:59.353Z,79.63
2022-11-05T09:48:32.144Z,79.81
2022-11-05T09:51:00.771Z,79.33
2022-11-05T09:53:29.370Z,79.29
2022-11-05T09:55:59.873Z,79.12
2022-11-05T09:58:40.054Z,78.89
2022-11-05T10:01:13.605Z,79.36
2022-11-05T10:03:46.582Z,78.79
2022-11-05T10:06:20.646Z,79.15
2022-11-05T10:08:52.322Z,78.98
2022-11-05T10:11:25.980Z,79.65
2022-11-05T10:13:59.957Z,79.25
2022-11-05T10:16:32.301Z,79.14
2022-11-05T10:19:06.573Z,79.43
2022-11-05T10:22:04.380Z,79.34
2022-11-05T10:24:23.217Z,79.59
2022-11-05T10:26:53.934Z,78.96
2022-11-05T10:29:29.462Z,78.89
2022-11-05T10:31:59.448Z,78.88
2022-11-05T10:34:34.172Z,78.89
2022-11-05T10:37:02.385Z,79.17
2022-11-05T10:39:32.367Z,78.81
2022-11-05T10:42:12.127Z,78.64
2022-11-05T10:44:47.768Z,78.73
2022-11-05T10:47:36.423Z,79.43
2022-11-05T10:50:06.502Z,79.09
2022-11-05T10:52:36.884Z,78.88
2022-11-05T10:55:08.066Z,79.24
2022-11-05T10:57:38.010Z,79.22
2022-11-05T11:00:31.249Z,78.80
2022-11-05T11:03:01.932Z,79.10
2022-11-05T11:05:33.397Z,78.67
2022-11-05T11:08:09.765Z,79.39
2022-11-05T11:10:43.437Z,79.09
2022-11-05T11:13:20.620Z,79.17
2022-11-05T11:15:51.109Z,79.18
2022-11-05T11:18:27.670Z,78.75
2022-11-05T11:21:07.295Z,79.26
2022-11-05T11:23:43.467Z,78.88
2022-11-05T11:26:12.800Z,79.35
2022-11-05T11:28:45.813Z,79.34
2022-11-05T11:31:17.626Z,78.98
2022-11-05T11:33:49.099Z,79.01
2022-11-05T11:36:19.559Z,79.10
2022-11-05T11:38:48.121Z,79.06
2022-11-05T11:41:29.149Z,79.21
2022-11-05T11:44:01.030Z,79.37
2022-11-05T11:46:33.678Z,79.08
2022-11-05T11:49:02.324Z,78.93
2022-11-05T11:51:33.523Z,79.23
2022-11-05T11:54:02.468Z,79.20
2022-11-05T11:56:32.923Z,79.42
2022-11-05T11:59:07.009Z,79.38
2022-11-05T12:02:17.955Z,79.49
2022-11-05T12:05:09.792Z,79.18
2022-11-05T12:07:56.507Z,79.78
2022-11-05T12:10:46.660Z,79.44
2022-11-05T12:14:04.768Z,79.34
2022-11-05T12:17:05.613Z,79.50
2022-11-05T12:19:50.656Z,79.48
2022-11-05T12:22:27.313Z,79.78
2022-11-05T12:25:20.230Z,79.59
2022-11-05T12:27:59.473Z,79.74
2022-11-05T12:30:30.450Z,79.73
2022-11-05T12:33:25.681Z,79.48
2022-11-05T12:36:09.603Z,79.68
2022-11-05T12:39:04.378Z,79.93
2022-11-05T12:41:36.242Z,79.71
2022-11-05T12:44:24.256Z,80.06
2022-11-05T12:47:04.405Z,79.70
2022-11-05T12:49:48.842Z,79.86
2022-11-05T12:52:36.759Z,79.91
2022-11-05T12:55:10.935Z,80.03
2022-11-05T12:57:43.207Z,80.29
2022-11-05T13:00:20.501Z,80.43
2022-11-05T13:02:53.847Z,80.15
2022-11-05T13:05:29.332Z,80.33
2022-11-05T13:08:01.829Z,80.35
2022-11-05T13:10:35.719Z,80.10
2022-11-05T13:13:07.815Z,80.18
2022-11-05T13:15:41.073Z,80.27
2022-11-05T13:18:16.175Z,80.37
2022-11-05T13:20:50.687Z,80.35
2022-11-05T13:23:26.144Z,80.29
2022-11-05T13:26:00.501Z,80.50
2022-11-05T13:28:39.637Z,80.34
2022-11-05T13:31:13.479Z,80.42
2022-11-05T13:33:46.352Z,80.61
2022-11-05T13:36:35.836Z,80.31
2022-11-05T13:39:13.101Z,80.59
2022-11-05T13:41:56.016Z,80.31
2022-11-05T13:44:58.410Z,80.85
2022-11-05T13:47:54.003Z,80.46
2022-11-05T13:50:49.082Z,80.83
2022-11-05T13:53:55.233Z,80.66
2022-11-05T13:56:39.254Z,80.80
2022-11-05T13:59:33.183Z,80.75
2022-11-05T14:02:04.504Z,80.88
2022-11-05T14:04:35.668Z,81.01
2022-11-05T14:07:10.627Z,80.83
2022-11-05T14:09:40.744Z,80.90
2022-11-05T14:12:20.219Z,80.99
2022-11-05T14:14:58.647Z,80.52
2022-11-05T14:17:34.611Z,80.86
2022-11-05T14:20:25.290Z,80.83
2022-11-05T14:22:54.023Z,80.92
2022-11-05T14:26:00.846Z,80.84
2022-11-05T14:28:42.074Z,81.01
2022-11-05T14:31:54.293Z,80.93
2022-11-05T14:34:24.129Z,81.38
2022-11-05T14:37:22.123Z,81.44
2022-11-05T14:39:50.608Z,81.17
2022-11-05T14:42:23.340Z,81.10
2022-11-05T14:45:04.594Z,81.17
2022-11-05T14:47:36.942Z,81.38
2022-11-05T14:50:13.819Z,81.14
2022-11-05T14:52:51.440Z,81.62
2022-11-05T14:55:28.540Z,81.31
2022-11-05T14:58:06.159Z,81.47
2022-11-05T15:00:49.289Z,81.29
2022-11-05T15:03:47.181Z,81.68
2022-11-05T15:06:26.329Z,81.72
2022-11-05T15:09:16.853Z,81.55
2022-11-05T15:11:53.359Z,81.17
2022-11-05T15:14:25.457Z,81.36
2022-11-05T15:16:55.905Z,81.13
2022-11-05T15:19:30.497Z,81.68
2022-11-05T15:22:00.599Z,81.59
2022-11-05T15:24:29.404Z,81.76
2022-11-05T15:27:05.851Z,81.71
2022-11-05T15:29:34.633Z,81.68
2022-11-05T15:32:02.996Z,81.64
2022-11-05T15:34:36.273Z,82.04
2022-11-05T15:37:22.006Z,82.06
2022-11-05T15:39:51.397Z,81.78
2022-11-05T15:42:22.187Z,81.98
2022-11-05T15:44:52.630Z,81.66
2022-11-05T15:47:23.007Z,82.03
2022-11-05T15:49:56.965Z,81.81
2022-11-05T15:52:34.738Z,82.25
2022-11-05T15:55:18.031Z,82.30
2022-11-05T15:57:51.023Z,82.48
2022-11-05T16:00:22.530Z,82.04
2022-11-05T16:02:56.347Z,82.09
2022-11-05T16:05:27.887Z,82.34
2022-11-05T16:07:59.390Z,82.01
2022-11-05T16:10:30.407Z,82.40
2022-11-05T16:12:58.278Z,82.70
2022-11-05T16:15:33.047Z,82.33
2022-11-05T16:18:01.735Z,82.32
2022-11-05T16:20:33.620Z,81.99
2022-11-05T16:23:04.187Z,82.31
2022-11-05T16:25:40.525Z,82.53
2022-11-05T16:28:22.663Z,82.49
2022-11-05T16:30:55.924Z,82.98
2022-11-05T16:33:24.730Z,82.67
2022-11-05T16:35:54.726Z,82.87
2022-11-05T16:38:23.920Z,82.99
2022-11-05T16:40:52.118Z,82.33
2022-11-05T16:43:23.328Z,82.72
2022-11-05T16:45:54.833Z,82.87
2022-11-05T16:48:22.968Z,82.71
2022-11-05T16:50:51.246Z,82.71
2022-11-05T16:53:21.789Z,82.97
2022-11-05T16:55:50.002Z,83.15
2022-11-05T16:58:21.786Z,82.65
2022-11-05T17:00:51.249Z,82.95
2022-11-05T17:03:19.735Z,82.87
2022-11-05T17:05:47.767Z,82.78
2022-11-05T17:08:15.973Z,83.07
2022-11-05T17:10:45.635Z,82.77
2022-11-05T17:13:16.383Z,82.93
2022-11-05T17:15:45.989Z,82.94
2022-11-05T17:18:18.461Z,82.80
2022-11-05T17:20:49.640Z,83.06
2022-11-05T17:23:20.145Z,83.10
2022-11-05T17:25:52.029Z,82.92
2022-11-05T17:28:20.705Z,82.93
2022-11-05T17:30:52.951Z,83.05
2022-11-05T17:33:23.250Z,83.38
2022-11-05T17:35:52.225Z,83.30
2022-11-05T17:38:20.862Z,83.12
2022-11-05T17:40:50.951Z,83.22
2022-11-05T17:43:20.010Z,83.24
2022-11-05T17:45:49.740Z,83.23
2022-11-05T17:48:18.113Z,83.30
2022-11-05T17:50:47.793Z,83.28
2022-11-05T17:53:17.301Z,83.40
2022-11-05T17:55:47.170Z,83.12
2022-11-05T17:58:17.291Z,83.44
2022-11-05T18:00:46.259Z,83.39
2022-11-05T18:03:15.015Z,83.32
2022-11-05T18:05:44.022Z,83.06
2022-11-05T18:08:12.524Z,83.46
2022-11-05T18:10:41.875Z,83.52
2022-11-05T18:13:09.949Z,83.53
2022-11-05T18:15:41.266Z,83.56
2022-11-05T18:18:10.963Z,83.35
2022-11-05T18:20:39.122Z,83.30
2022-11-05T18:23:07.032Z,83.52
2022-11-05T18:25:35.272Z,83.27
2022-11-05T18:28:03.122Z,83.47
2022-11-05T18:30:30.942Z,83.26
2022-11-05T18:33:00.769Z,83.68
2022-11-05T18:35:28.878Z,83.40
2022-11-05T18:37:57.013Z,83.47
2022-11-05T18:40:25.357Z,83.90
2022-11-05T18:42:53.152Z,83.76
2022-11-05T18:45:25.547Z,83.55
2022-11-05T18:47:56.807Z,83.57
2022-11-05T18:50:26.119Z,83.86
2022-11-05T18:52:53.916Z,83.63
2022-11-05T18:55:22.318Z,84.04
2022-11-05T18:57:50.387Z,83.57
2022-11-05T19:00:18.554Z,83.94
2022-11-05T19:02:46.627Z,83.64
2022-11-05T19:05:28.572Z,83.57
2022-11-05T19:07:58.952Z,83.67
2022-11-05T19:10:27.403Z,83.76
2022-11-05T19:12:56.390Z,83.69
2022-11-05T19:15:24.424Z,84.24
2022-11-05T19:17:52.320Z,84.27
2022-11-05T19:20:20.308Z,83.89
2022-11-05T19:22:48.310Z,84.14
2022-11-05T19:25:17.853Z,84.11
2022-11-05T19:27:45.747Z,84.02
2022-11-05T19:30:14.044Z,83.73
2022-11-05T19:32:41.898Z,83.95
2022-11-05T19:35:10.218Z,84.19
2022-11-05T19:37:38.609Z,84.02
2022-11-05T19:40:08.167Z,84.45
2022-11-05T19:42:37.698Z,83.97
2022-11-05T19:45:30.062Z,84.19
2022-11-05T19:47:55.056Z,84.22
2022-11-05T19:50:23.145Z,84.40
2022-11-05T19:52:51.251Z,84.20
2022-11-05T19:55:19.096Z,84.19
2022-11-05T19:57:48.623Z,83.99
2022-11-05T20:00:17.075Z,84.46
2022-11-05T20:02:46.417Z,84.10
2022-11-05T20:05:15.565Z,84.24
2022-11-05T20:07:46.962Z,84.43
2022-11-05T20:10:18.020Z,84.05
2022-11-05T20:12:46.033Z,84.36
2022-11-05T20:15:15.316Z,84.40
2022-11-05T20:17:43.158Z,84.22
2022-11-05T20:20:12.034Z,84.23
2022-11-05T20:22:40.172Z,84.39
2022-11-05T20:25:09.142Z,84.39
2022-11-05T20:27:37.388Z,84.55
2022-11-05T20:30:07.264Z,84.36
2022-11-05T20:32:36.588Z,84.45
2022-11-05T20:35:04.972Z,84.38
2022-11-05T20:37:32.875Z,84.54
2022-11-05T20:40:01.855Z,84.50
2022-11-05T20:42:29.648Z,84.56
2022-11-05T20:44:57.612Z,84.76
2022-11-05T20:47:25.563Z,84.66
2022-11-05T20:49:55.605Z,84.62
2022-11-05T20:52:24.142Z,84.48
2022-11-05T20:54:52.219Z,84.64
2022-11-05T20:57:21.028Z,84.89
2022-11-05T20:59:48.905Z,84.61
2022-11-05T21:02:17.172Z,84.79
2022-11-05T21:04:45.969Z,84.90
2022-11-05T21:07:16.704Z,84.54
2022-11-05T21:09:44.501Z,84.98
2022-11-05T21:12:12.496Z,84.72
2022-11-05T21:14:42.516Z,85.12
2022-11-05T21:17:13.070Z,84.92
2022-11-05T21:19:43.592Z,84.71
2022-11-05T21:22:15.173Z,84.76
2022-11-05T21:24:44.531Z,84.57
2022-11-05T21:27:12.600Z,84.69
2022-11-05T21:29:40.390Z,84.95
2022-11-05T21:32:08.744Z,85.14
2022-11-05T21:34:36.753Z,84.66
2022-11-05T21:37:05.735Z,84.50
2022-11-05T21:39:34.854Z,85.18
2022-11-05T21:42:04.424Z,85.09
2022-11-05T21:44:32.176Z,85.25
2022-11-05T21:47:00.258Z,84.82
2022-11-05T21:49:28.567Z,85.26
2022-11-05T21:52:13.943Z,84.75
2022-11-05T21:54:59.285Z,84.70
2022-11-05T21:57:46.203Z,85.24
2022-11-05T22:00:15.770Z,84.77
2022-11-05T22:02:43.780Z,85.01
2022-11-05T22:05:11.837Z,84.81
2022-11-05T22:07:40.539Z,85.04
2022-11-05T22:10:15.804Z,85.36
2022-11-05T22:12:46.561Z,84.89
2022-11-05T22:15:15.164Z,85.34
2022-11-05T22:17:46.872Z,85.36
2022-11-05T22:20:16.484Z,85.01
2022-11-05T22:22:44.640Z,85.39
2022-11-05T22:25:12.935Z,85.36
2022-11-05T22:27:40.784Z,85.17
2022-11-05T22:30:11.084Z,85.39
2022-11-05T22:32:39.007Z,84.90
2022-11-05T22:35:08.352Z,84.87
2022-11-05T22:37:36.190Z,85.60
2022-11-05T22:40:04.130Z,85.58
2022-11-05T22:42:32.146Z,85.67
2022-11-05T22:45:00.101Z,85.58
2022-11-05T22:47:29.356Z,85.33
2022-11-05T22:49:58.262Z,85.47
2022-11-05T22:52:26.263Z,85.52
2022-11-05T22:54:54.326Z,85.01
2022-11-05T22:57:22.159Z,85.42
2022-11-05T22:59:50.218Z,85.20
2022-11-05T23:02:18.358Z,85.57
2022-11-05T23:04:48.948Z,85.57
2022-11-05T23:07:34.124Z,85.64
2022-11-05T23:10:19.682Z,85.80
2022-11-05T23:12:47.658Z,85.58
2022-11-05T23:15:48.397Z,85.63
2022-11-05T23:18:34.073Z,85.60
2022-11-05T23:21:23.171Z,85.39
2022-11-05T23:24:06.471Z,85.51
2022-11-05T23:26:52.439Z,85.37
2022-11-05T23:29:22.357Z,85.64
2022-11-05T23:32:08.566Z,85.71
2022-11-05T23:34:36.535Z,85.45
2022-11-05T23:37:23.912Z,85.47
2022-11-05T23:39:52.538Z,85.54
2022-11-05T23:42:37.747Z,85.71
2022-11-05T23:45:24.380Z,85.64
2022-11-05T23:48:09.956Z,85.43
2022-11-05T23:50:40.019Z,85.68
2022-11-05T23:53:10.481Z,85.72
2022-11-05T23:55:38.351Z,85.59
2022-11-05T23:58:07.051Z,85.69
